sensor_id;sensor_type;location;lat;lon;timestamp;pressure;altitude;pressure_sealevel;temperature;humidity
58775;BME280;44545;47.480;19.024;2023-04-21T03:11:52;100063.09;;;9.82;74.05
58775;BME280;44545;47.480;19.024;2023-04-21T03:14:55;100063.09;;;9.82;74.05
58775;BME280;44545;47.480;19.024;2023-04-21T03:17:57;100080.34;;;9.30;74.70
58775;BME280;44545;47.480;19.024;2023-04-21T03:21:00;100080.34;;;9.30;73.78
58775;BME280;44545;47.480;19.024;2023-04-21T03:24:02;100085.09;;;9.38;74.22
58775;BME280;44545;47.480;19.024;2023-04-21T03:27:05;100081.66;;;9.39;73.61
58775;BME280;44545;47.480;19.024;2023-04-21T03:30:07;100075.97;;;9.46;73.47
58775;BME280;44545;47.480;19.024;2023-04-21T03:33:10;100089.31;;;9.52;72.24
58775;BME280;44545;47.480;19.024;2023-04-21T03:36:12;100083.63;;;9.59;71.65
58775;BME280;44545;47.480;19.024;2023-04-21T03:39:15;100088.69;;;9.72;70.88
58775;BME280;44545;47.480;19.024;2023-04-21T03:42:21;100090.47;;;9.73;71.31
58775;BME280;44545;47.480;19.024;2023-04-21T03:45:24;100090.38;;;9.72;70.89
58775;BME280;44545;47.480;19.024;2023-04-21T03:48:27;100089.41;;;9.70;70.72
58775;BME280;44545;47.480;19.024;2023-04-21T03:51:29;100094.19;;;9.79;70.41
58775;BME280;44545;47.480;19.024;2023-04-21T03:54:33;100094.19;;;9.79;70.28
58775;BME280;44545;47.480;19.024;2023-04-21T03:57:39;100096.81;;;9.79;70.50
58775;BME280;44545;47.480;19.024;2023-04-21T04:00:42;100088.81;;;9.92;68.57
58775;BME280;44545;47.480;19.024;2023-04-21T04:03:45;100092.69;;;10.00;68.46
58775;BME280;44545;47.480;19.024;2023-04-21T04:06:47;100094.56;;;10.19;66.80
58775;BME280;44545;47.480;19.024;2023-04-21T04:09:50;100105.59;;;11.19;69.38
58775;BME280;44545;47.480;19.024;2023-04-21T04:12:52;100104.84;;;11.22;63.40
58775;BME280;44545;47.480;19.024;2023-04-21T04:15:56;100108.44;;;10.88;64.49
58775;BME280;44545;47.480;19.024;2023-04-21T04:18:59;100103.53;;;10.94;64.33
58775;BME280;44545;47.480;19.024;2023-04-21T04:22:02;100116.22;;;10.87;64.83
58775;BME280;44545;47.480;19.024;2023-04-21T04:25:04;100118.22;;;10.74;65.39
58775;BME280;44545;47.480;19.024;2023-04-21T04:28:07;100116.94;;;10.84;65.76
58775;BME280;44545;47.480;19.024;2023-04-21T04:31:10;100122.00;;;10.81;66.13
58775;BME280;44545;47.480;19.024;2023-04-21T04:34:15;100121.72;;;10.75;66.17
58775;BME280;44545;47.480;19.024;2023-04-21T04:37:17;100123.47;;;10.76;66.92
58775;BME280;44545;47.480;19.024;2023-04-21T04:40:19;100126.94;;;10.75;66.28
58775;BME280;44545;47.480;19.024;2023-04-21T04:43:23;100124.41;;;10.76;66.14
58775;BME280;44545;47.480;19.024;2023-04-21T04:46:26;100125.44;;;10.80;66.53
58775;BME280;44545;47.480;19.024;2023-04-21T04:49:29;100138.63;;;10.83;67.16
58775;BME280;44545;47.480;19.024;2023-04-21T04:52:31;100127.59;;;10.89;66.50
58775;BME280;44545;47.480;19.024;2023-04-21T04:55:34;100137.44;;;10.94;66.61
58775;BME280;44545;47.480;19.024;2023-04-21T04:58:36;100134.75;;;11.11;65.15
58775;BME280;44545;47.480;19.024;2023-04-21T05:01:38;100129.09;;;11.19;65.20
58775;BME280;44545;47.480;19.024;2023-04-21T05:04:43;100136.59;;;11.31;63.90
58775;BME280;44545;47.480;19.024;2023-04-21T05:07:45;100123.78;;;11.55;63.12
58775;BME280;44545;47.480;19.024;2023-04-21T05:10:48;100126.97;;;11.67;63.26
58775;BME280;44545;47.480;19.024;2023-04-21T05:13:50;100124.97;;;11.81;60.57
58775;BME280;44545;47.480;19.024;2023-04-21T05:16:52;100126.09;;;12.06;60.53
58775;BME280;44545;47.480;19.024;2023-04-21T05:19:54;100125.81;;;12.19;59.04
58775;BME280;44545;47.480;19.024;2023-04-21T05:22:57;100125.16;;;12.44;58.30
58775;BME280;44545;47.480;19.024;2023-04-21T05:25:59;100128.09;;;12.52;58.68
58775;BME280;44545;47.480;19.024;2023-04-21T05:29:05;100128.31;;;13.00;57.89
58775;BME280;44545;47.480;19.024;2023-04-21T05:32:07;100129.34;;;13.26;56.04
58775;BME280;44545;47.480;19.024;2023-04-21T05:35:10;100123.66;;;14.05;53.61
58775;BME280;44545;47.480;19.024;2023-04-21T05:38:12;100130.44;;;14.76;52.04
58775;BME280;44545;47.480;19.024;2023-04-21T05:41:15;100121.69;;;15.59;49.47
58775;BME280;44545;47.480;19.024;2023-04-21T05:44:17;100130.44;;;16.84;46.17
58775;BME280;44545;47.480;19.024;2023-04-21T05:47:20;100131.50;;;18.09;42.46
58775;BME280;44545;47.480;19.024;2023-04-21T05:50:23;100124.38;;;19.02;40.48
58775;BME280;44545;47.480;19.024;2023-04-21T05:53:27;100117.72;;;19.91;38.16
58775;BME280;44545;47.480;19.024;2023-04-21T05:56:30;100117.59;;;20.60;36.96
58775;BME280;44545;47.480;19.024;2023-04-21T05:59:33;100119.78;;;20.17;36.99
58775;BME280;44545;47.480;19.024;2023-04-21T06:02:41;100125.44;;;21.62;33.84
58775;BME280;44545;47.480;19.024;2023-04-21T06:05:54;100115.19;;;20.89;35.08
58775;BME280;44545;47.480;19.024;2023-04-21T06:09:15;100111.63;;;22.84;32.71
58775;BME280;44545;47.480;19.024;2023-04-21T06:12:31;100108.88;;;23.53;30.33
58775;BME280;44545;47.480;19.024;2023-04-21T06:15:54;100111.37;;;24.04;29.74
58775;BME280;44545;47.480;19.024;2023-04-21T06:19:04;100117.47;;;24.23;29.63
58775;BME280;44545;47.480;19.024;2023-04-21T06:22:32;100117.53;;;24.14;28.78
58775;BME280;44545;47.480;19.024;2023-04-21T06:26:03;100108.25;;;24.76;27.85
58775;BME280;44545;47.480;19.024;2023-04-21T06:29:13;100114.78;;;24.29;29.15
58775;BME280;44545;47.480;19.024;2023-04-21T06:32:42;100116.81;;;25.18;27.24
58775;BME280;44545;47.480;19.024;2023-04-21T06:35:54;100115.75;;;25.36;26.49
58775;BME280;44545;47.480;19.024;2023-04-21T06:38:57;100111.00;;;25.61;25.09
58775;BME280;44545;47.480;19.024;2023-04-21T06:41:59;100117.44;;;24.29;26.73
58775;BME280;44545;47.480;19.024;2023-04-21T06:45:02;100117.66;;;25.25;25.83
58775;BME280;44545;47.480;19.024;2023-04-21T06:48:06;100107.69;;;26.16;24.90
58775;BME280;44545;47.480;19.024;2023-04-21T06:51:08;100102.66;;;25.92;24.55
58775;BME280;44545;47.480;19.024;2023-04-21T06:54:10;100102.00;;;26.38;23.91
58775;BME280;44545;47.480;19.024;2023-04-21T06:57:13;100102.41;;;27.25;23.21
58775;BME280;44545;47.480;19.024;2023-04-21T07:00:16;100103.62;;;27.06;22.51
58775;BME280;44545;47.480;19.024;2023-04-21T07:03:19;100100.72;;;28.50;21.48
58775;BME280;44545;47.480;19.024;2023-04-21T07:06:22;100105.28;;;27.11;22.89
58775;BME280;44545;47.480;19.024;2023-04-21T07:09:24;100109.31;;;26.27;23.93
58775;BME280;44545;47.480;19.024;2023-04-21T07:12:26;100099.59;;;27.31;21.81
58775;BME280;44545;47.480;19.024;2023-04-21T07:15:29;100111.00;;;26.34;23.44
58775;BME280;44545;47.480;19.024;2023-04-21T07:18:31;100108.50;;;26.22;23.24
58775;BME280;44545;47.480;19.024;2023-04-21T07:21:35;100096.91;;;27.78;21.84
58775;BME280;44545;47.480;19.024;2023-04-21T07:24:39;100098.53;;;27.88;21.92
58775;BME280;44545;47.480;19.024;2023-04-21T07:27:41;100106.97;;;26.66;23.49
58775;BME280;44545;47.480;19.024;2023-04-21T07:30:43;100101.06;;;26.41;24.02
58775;BME280;44545;47.480;19.024;2023-04-21T07:33:46;100099.13;;;28.01;22.92
58775;BME280;44545;47.480;19.024;2023-04-21T07:36:49;100101.44;;;27.74;22.18
58775;BME280;44545;47.480;19.024;2023-04-21T07:39:52;100100.97;;;27.97;21.16
58775;BME280;44545;47.480;19.024;2023-04-21T07:42:55;100093.00;;;27.96;21.67
58775;BME280;44545;47.480;19.024;2023-04-21T07:45:57;100093.91;;;29.08;20.54
58775;BME280;44545;47.480;19.024;2023-04-21T07:48:59;100097.00;;;29.58;20.49
58775;BME280;44545;47.480;19.024;2023-04-21T07:52:05;100102.53;;;28.07;21.26
58775;BME280;44545;47.480;19.024;2023-04-21T07:55:07;100101.81;;;27.08;23.07
58775;BME280;44545;47.480;19.024;2023-04-21T07:58:10;100102.47;;;27.67;22.08
58775;BME280;44545;47.480;19.024;2023-04-21T08:01:12;100103.75;;;28.72;20.81
58775;BME280;44545;47.480;19.024;2023-04-21T08:04:15;100090.16;;;28.80;19.80
58775;BME280;44545;47.480;19.024;2023-04-21T08:07:17;100099.03;;;29.83;19.77
58775;BME280;44545;47.480;19.024;2023-04-21T08:10:19;100090.34;;;29.08;19.89
58775;BME280;44545;47.480;19.024;2023-04-21T08:13:22;100091.72;;;29.88;18.93
58775;BME280;44545;47.480;19.024;2023-04-21T08:16:26;100087.75;;;29.03;19.96
58775;BME280;44545;47.480;19.024;2023-04-21T08:19:29;100085.34;;;27.74;21.48
58775;BME280;44545;47.480;19.024;2023-04-21T08:22:32;100091.63;;;26.16;22.38
58775;BME280;44545;47.480;19.024;2023-04-21T08:25:34;100099.16;;;25.87;22.94
58775;BME280;44545;47.480;19.024;2023-04-21T08:28:37;100093.75;;;25.93;22.24
58775;BME280;44545;47.480;19.024;2023-04-21T08:31:39;100093.00;;;28.35;20.33
58775;BME280;44545;47.480;19.024;2023-04-21T08:34:42;100094.25;;;26.20;22.62
58775;BME280;44545;47.480;19.024;2023-04-21T08:37:46;100093.41;;;26.17;22.25
58775;BME280;44545;47.480;19.024;2023-04-21T08:40:51;100094.84;;;26.97;22.42
58775;BME280;44545;47.480;19.024;2023-04-21T08:43:53;100088.19;;;28.10;20.22
58775;BME280;44545;47.480;19.024;2023-04-21T08:46:57;100080.56;;;30.30;19.00
58775;BME280;44545;47.480;19.024;2023-04-21T08:50:00;100083.72;;;30.71;17.62
58775;BME280;44545;47.480;19.024;2023-04-21T08:53:03;100071.28;;;31.70;17.17
58775;BME280;44545;47.480;19.024;2023-04-21T08:56:05;100072.97;;;32.20;16.63
58775;BME280;44545;47.480;19.024;2023-04-21T08:59:13;100081.06;;;32.20;15.85
58775;BME280;44545;47.480;19.024;2023-04-21T09:02:17;100075.25;;;33.38;14.63
58775;BME280;44545;47.480;19.024;2023-04-21T09:05:22;100081.50;;;32.97;15.29
58775;BME280;44545;47.480;19.024;2023-04-21T09:08:26;100066.59;;;34.27;14.65
58775;BME280;44545;47.480;19.024;2023-04-21T09:11:31;100071.81;;;34.68;13.33
58775;BME280;44545;47.480;19.024;2023-04-21T09:14:35;100068.88;;;34.90;13.28
58775;BME280;44545;47.480;19.024;2023-04-21T09:17:37;100058.34;;;35.36;13.28
58775;BME280;44545;47.480;19.024;2023-04-21T09:20:41;100064.41;;;35.24;13.26
58775;BME280;44545;47.480;19.024;2023-04-21T09:23:50;100055.97;;;37.51;12.05
58775;BME280;44545;47.480;19.024;2023-04-21T09:26:53;100057.19;;;35.75;13.00
58775;BME280;44545;47.480;19.024;2023-04-21T09:30:02;100064.81;;;32.88;15.78
58775;BME280;44545;47.480;19.024;2023-04-21T09:33:05;100058.03;;;35.43;15.02
58775;BME280;44545;47.480;19.024;2023-04-21T09:36:26;100053.34;;;29.83;17.07
58775;BME280;44545;47.480;19.024;2023-04-21T09:39:29;100040.31;;;32.04;16.56
58775;BME280;44545;47.480;19.024;2023-04-21T09:42:50;100044.78;;;33.93;14.40
58775;BME280;44545;47.480;19.024;2023-04-21T09:45:54;100037.19;;;29.21;18.54
58775;BME280;44545;47.480;19.024;2023-04-21T09:48:59;100047.69;;;26.92;22.29
58775;BME280;44545;47.480;19.024;2023-04-21T09:52:02;100055.75;;;24.84;22.68
58775;BME280;44545;47.480;19.024;2023-04-21T09:55:11;100058.44;;;22.67;27.57
58775;BME280;44545;47.480;19.024;2023-04-21T09:58:15;100046.91;;;22.53;27.23
58775;BME280;44545;47.480;19.024;2023-04-21T10:01:23;100046.09;;;25.58;23.36
58775;BME280;44545;47.480;19.024;2023-04-21T10:04:30;100035.94;;;25.84;23.19
58775;BME280;44545;47.480;19.024;2023-04-21T10:07:33;100044.22;;;26.29;21.85
58775;BME280;44545;47.480;19.024;2023-04-21T10:10:36;100055.56;;;25.03;22.82
58775;BME280;44545;47.480;19.024;2023-04-21T10:13:38;100032.47;;;26.41;21.33
58775;BME280;44545;47.480;19.024;2023-04-21T10:16:43;100032.84;;;28.81;19.31
58775;BME280;44545;47.480;19.024;2023-04-21T10:19:50;100029.78;;;28.62;19.36
58775;BME280;44545;47.480;19.024;2023-04-21T10:22:56;100024.44;;;33.26;15.38
58775;BME280;44545;47.480;19.024;2023-04-21T10:29:08;100014.13;;;35.52;12.77
58775;BME280;44545;47.480;19.024;2023-04-21T10:32:10;100008.66;;;31.14;16.29
58775;BME280;44545;47.480;19.024;2023-04-21T10:35:22;100007.19;;;29.03;18.55
58775;BME280;44545;47.480;19.024;2023-04-21T10:38:42;99997.28;;;33.68;14.94
58775;BME280;44545;47.480;19.024;2023-04-21T10:41:45;99993.28;;;39.03;10.63
58775;BME280;44545;47.480;19.024;2023-04-21T10:47:59;99984.25;;;37.38;11.77
58775;BME280;44545;47.480;19.024;2023-04-21T10:51:03;99984.50;;;37.47;12.49
58775;BME280;44545;47.480;19.024;2023-04-21T10:54:06;99982.28;;;33.01;14.78
58775;BME280;44545;47.480;19.024;2023-04-21T10:57:10;99984.84;;;28.34;21.16
58775;BME280;44545;47.480;19.024;2023-04-21T11:00:15;99984.16;;;30.96;17.34
58775;BME280;44545;47.480;19.024;2023-04-21T11:03:18;99982.41;;;33.18;15.30
58775;BME280;44545;47.480;19.024;2023-04-21T11:06:21;99990.19;;;30.23;17.33
58775;BME280;44545;47.480;19.024;2023-04-21T11:09:23;99989.56;;;28.60;19.17
58775;BME280;44545;47.480;19.024;2023-04-21T11:12:28;99984.16;;;26.50;20.89
58775;BME280;44545;47.480;19.024;2023-04-21T11:15:31;99995.41;;;24.71;23.33
58775;BME280;44545;47.480;19.024;2023-04-21T11:18:38;99988.16;;;23.62;24.97
58775;BME280;44545;47.480;19.024;2023-04-21T11:21:41;99987.53;;;22.02;27.26
58775;BME280;44545;47.480;19.024;2023-04-21T11:24:44;99989.25;;;21.77;27.51
58775;BME280;44545;47.480;19.024;2023-04-21T11:27:55;99985.72;;;21.79;28.05
58775;BME280;44545;47.480;19.024;2023-04-21T11:30:57;99983.03;;;21.58;28.63
58775;BME280;44545;47.480;19.024;2023-04-21T11:34:00;99980.34;;;21.49;28.66
58775;BME280;44545;47.480;19.024;2023-04-21T11:37:03;99984.72;;;21.40;28.33
58775;BME280;44545;47.480;19.024;2023-04-21T11:40:06;99986.19;;;20.88;31.32
58775;BME280;44545;47.480;19.024;2023-04-21T11:43:09;99984.97;;;20.41;30.15
58775;BME280;44545;47.480;19.024;2023-04-21T11:46:22;99985.16;;;20.66;30.87
58775;BME280;44545;47.480;19.024;2023-04-21T11:49:26;99977.38;;;20.87;30.60
58775;BME280;44545;47.480;19.024;2023-04-21T11:52:32;99973.75;;;20.74;29.46
58775;BME280;44545;47.480;19.024;2023-04-21T11:55:35;99976.97;;;20.35;31.59
58775;BME280;44545;47.480;19.024;2023-04-21T11:58:38;99977.87;;;20.40;32.26
58775;BME280;44545;47.480;19.024;2023-04-21T12:01:52;99979.81;;;20.58;30.60
58775;BME280;44545;47.480;19.024;2023-04-21T12:05:06;99974.50;;;20.58;31.39
58775;BME280;44545;47.480;19.024;2023-04-21T12:08:14;99970.25;;;20.83;30.74
58775;BME280;44545;47.480;19.024;2023-04-21T12:11:17;99961.59;;;21.16;29.58
58775;BME280;44545;47.480;19.024;2023-04-21T12:14:22;99964.50;;;21.70;29.41
58775;BME280;44545;47.480;19.024;2023-04-21T12:17:25;99953.03;;;22.03;27.74
58775;BME280;44545;47.480;19.024;2023-04-21T12:20:28;99960.03;;;21.61;29.29
58775;BME280;44545;47.480;19.024;2023-04-21T12:23:31;99958.13;;;21.25;29.88
58775;BME280;44545;47.480;19.024;2023-04-21T12:26:34;99962.22;;;20.65;31.64
58775;BME280;44545;47.480;19.024;2023-04-21T12:29:36;99950.97;;;21.10;30.79
58775;BME280;44545;47.480;19.024;2023-04-21T12:32:40;99946.41;;;20.80;31.13
58775;BME280;44545;47.480;19.024;2023-04-21T12:35:42;99944.69;;;20.91;31.53
58775;BME280;44545;47.480;19.024;2023-04-21T12:38:45;99946.53;;;21.06;29.50
58775;BME280;44545;47.480;19.024;2023-04-21T12:41:47;99943.88;;;21.05;31.36
58775;BME280;44545;47.480;19.024;2023-04-21T12:44:50;99944.78;;;21.08;31.16
58775;BME280;44545;47.480;19.024;2023-04-21T12:47:52;99946.28;;;20.63;30.86
58775;BME280;44545;47.480;19.024;2023-04-21T12:50:55;99950.81;;;20.78;32.05
58775;BME280;44545;47.480;19.024;2023-04-21T12:53:58;99942.91;;;20.84;31.35
58775;BME280;44545;47.480;19.024;2023-04-21T12:57:01;99938.38;;;20.66;30.90
58775;BME280;44545;47.480;19.024;2023-04-21T13:00:04;99939.06;;;20.42;31.05
58775;BME280;44545;47.480;19.024;2023-04-21T13:03:06;99939.78;;;20.23;31.03
58775;BME280;44545;47.480;19.024;2023-04-21T13:06:09;99945.00;;;20.10;32.08
58775;BME280;44545;47.480;19.024;2023-04-21T13:09:11;99945.03;;;20.17;32.93
58775;BME280;44545;47.480;19.024;2023-04-21T13:12:14;99938.91;;;20.21;31.73
58775;BME280;44545;47.480;19.024;2023-04-21T13:15:16;99939.78;;;20.18;32.46
58775;BME280;44545;47.480;19.024;2023-04-21T13:18:19;99939.66;;;20.06;32.94
58775;BME280;44545;47.480;19.024;2023-04-21T13:21:21;99934.97;;;19.76;33.23
58775;BME280;44545;47.480;19.024;2023-04-21T13:24:23;99930.03;;;19.28;34.93
58775;BME280;44545;47.480;19.024;2023-04-21T13:27:29;99932.87;;;19.47;33.04
58775;BME280;44545;47.480;19.024;2023-04-21T13:30:32;99929.50;;;19.60;34.08
58775;BME280;44545;47.480;19.024;2023-04-21T13:33:35;99923.94;;;19.36;32.87
58775;BME280;44545;47.480;19.024;2023-04-21T13:36:37;99920.62;;;19.55;32.28
58775;BME280;44545;47.480;19.024;2023-04-21T13:39:40;99926.72;;;19.49;34.33
58775;BME280;44545;47.480;19.024;2023-04-21T13:42:42;99927.56;;;19.42;34.26
58775;BME280;44545;47.480;19.024;2023-04-21T13:45:45;99923.31;;;19.58;33.16
58775;BME280;44545;47.480;19.024;2023-04-21T13:48:49;99927.03;;;19.73;32.36
58775;BME280;44545;47.480;19.024;2023-04-21T13:51:52;99921.47;;;19.51;32.29
58775;BME280;44545;47.480;19.024;2023-04-21T13:54:55;99915.56;;;19.75;33.43
58775;BME280;44545;47.480;19.024;2023-04-21T13:58:00;99913.16;;;20.01;33.31
58775;BME280;44545;47.480;19.024;2023-04-21T14:01:02;99912.38;;;20.14;33.74
58775;BME280;44545;47.480;19.024;2023-04-21T14:04:05;99904.53;;;20.30;32.65
58775;BME280;44545;47.480;19.024;2023-04-21T14:07:08;99901.81;;;20.18;30.84
58775;BME280;44545;47.480;19.024;2023-04-21T14:10:11;99904.44;;;20.13;31.77
58775;BME280;44545;47.480;19.024;2023-04-21T14:13:13;99895.78;;;20.40;33.62
58775;BME280;44545;47.480;19.024;2023-04-21T14:16:35;99888.88;;;20.56;33.19
58775;BME280;44545;47.480;19.024;2023-04-21T14:19:38;99892.44;;;20.64;32.84
58775;BME280;44545;47.480;19.024;2023-04-21T14:22:40;99884.53;;;20.75;31.25
58775;BME280;44545;47.480;19.024;2023-04-21T14:25:44;99886.28;;;20.73;31.33
58775;BME280;44545;47.480;19.024;2023-04-21T14:28:48;99889.84;;;20.78;31.72
58775;BME280;44545;47.480;19.024;2023-04-21T14:31:50;99882.69;;;20.57;30.65
58775;BME280;44545;47.480;19.024;2023-04-21T14:34:55;99889.47;;;20.18;30.86
58775;BME280;44545;47.480;19.024;2023-04-21T14:37:59;99883.31;;;20.25;30.07
58775;BME280;44545;47.480;19.024;2023-04-21T14:41:02;99878.06;;;20.27;30.73
58775;BME280;44545;47.480;19.024;2023-04-21T14:44:04;99869.31;;;20.42;31.55
58775;BME280;44545;47.480;19.024;2023-04-21T14:47:06;99872.06;;;20.55;31.32
58775;BME280;44545;47.480;19.024;2023-04-21T14:50:11;99859.50;;;20.24;31.00
58775;BME280;44545;47.480;19.024;2023-04-21T14:53:14;99864.84;;;20.33;32.31
58775;BME280;44545;47.480;19.024;2023-04-21T14:56:16;99867.53;;;20.38;33.09
58775;BME280;44545;47.480;19.024;2023-04-21T14:59:20;99866.63;;;20.37;32.80
58775;BME280;44545;47.480;19.024;2023-04-21T15:02:24;99870.91;;;20.17;32.38
58775;BME280;44545;47.480;19.024;2023-04-21T15:05:27;99867.34;;;20.11;33.55
58775;BME280;44545;47.480;19.024;2023-04-21T15:08:29;99865.50;;;20.01;33.42
